createdAt,value
2023-02-05T00:02:07.733Z,6.60
2023-02-05T00:04:38.314Z,6.77
2023-02-05T00:07:08.541Z,6.97
2023-02-05T00:09:41.080Z,6.80
2023-02-05T00:12:10.365Z,6.70
2023-02-05T00:14:41.149Z,6.83
2023-02-05T00:17:10.589Z,6.73
2023-02-05T00:19:39.814Z,6.30
2023-02-05T00:22:09.236Z,7.03
2023-02-05T00:24:38.915Z,6.60
2023-02-05T00:27:10.384Z,6.73
2023-02-05T00:29:42.120Z,6.10
2023-02-05T00:32:11.882Z,6.40
2023-02-05T00:34:41.091Z,6.67
2023-02-05T00:37:10.408Z,6.27
2023-02-05T00:39:39.719Z,5.80
2023-02-05T00:42:09.157Z,6.27
2023-02-05T00:44:38.519Z,6.23
2023-02-05T00:47:09.318Z,6.47
2023-02-05T00:49:38.568Z,6.57
2023-02-05T00:52:07.878Z,5.53
2023-02-05T00:54:37.145Z,6.83
2023-02-05T00:57:06.433Z,6.20
2023-02-05T00:59:35.869Z,5.53
2023-02-05T01:02:05.152Z,5.63
2023-02-05T01:04:35.885Z,6.07
2023-02-05T01:07:05.107Z,5.73
2023-02-05T01:09:34.460Z,5.90
2023-02-05T01:12:03.892Z,6.10
2023-02-05T01:14:33.248Z,6.17
2023-02-05T01:17:02.536Z,6.20
2023-02-05T01:19:31.886Z,5.80
2023-02-05T01:22:02.711Z,5.23
2023-02-05T01:24:32.221Z,6.30
2023-02-05T01:27:01.673Z,5.47
2023-02-05T01:29:32.133Z,5.40
2023-02-05T01:32:01.411Z,6.30
2023-02-05T01:34:30.643Z,6.73
2023-02-05T01:37:01.535Z,5.83
2023-02-05T01:39:31.034Z,5.50
2023-02-05T01:42:00.375Z,5.83
2023-02-05T01:44:32.129Z,6.27
2023-02-05T01:47:01.371Z,5.70
2023-02-05T01:49:36.654Z,5.33
2023-02-05T01:52:13.341Z,6.10
2023-02-05T01:54:46.275Z,5.17
2023-02-05T01:57:20.367Z,5.57
2023-02-05T01:59:51.399Z,5.57
2023-02-05T02:02:20.681Z,6.00
2023-02-05T02:04:53.813Z,5.63
2023-02-05T02:07:26.479Z,5.40
2023-02-05T02:09:56.602Z,5.27
2023-02-05T02:12:30.613Z,4.97
2023-02-05T02:15:04.311Z,5.70
2023-02-05T02:17:39.436Z,5.80
2023-02-05T02:20:10.599Z,5.13
2023-02-05T02:23:08.371Z,5.50
2023-02-05T02:25:54.068Z,4.83
2023-02-05T02:28:28.199Z,5.60
2023-02-05T02:31:04.435Z,5.37
2023-02-05T02:33:42.202Z,5.33
2023-02-05T02:36:17.306Z,6.13
2023-02-05T02:38:52.892Z,5.90
2023-02-05T02:41:28.778Z,5.67
2023-02-05T02:44:00.950Z,5.70
2023-02-05T02:46:36.642Z,5.87
2023-02-05T02:49:12.047Z,5.57
2023-02-05T02:51:43.640Z,5.40
2023-02-05T02:54:17.408Z,5.13
2023-02-05T02:56:47.960Z,5.17
2023-02-05T02:59:21.877Z,5.50
2023-02-05T03:01:56.982Z,4.77
2023-02-05T03:04:30.412Z,4.87
2023-02-05T03:07:09.407Z,5.03
2023-02-05T03:09:44.857Z,4.80
2023-02-05T03:12:14.562Z,5.03
2023-02-05T03:14:45.522Z,5.00
2023-02-05T03:17:19.016Z,4.73
2023-02-05T03:19:54.852Z,5.40
2023-02-05T03:22:24.279Z,4.80
2023-02-05T03:24:54.251Z,5.53
2023-02-05T03:27:24.777Z,5.03
2023-02-05T03:29:56.681Z,4.97
2023-02-05T03:32:38.427Z,5.23
2023-02-05T03:35:24.369Z,5.07
2023-02-05T03:38:08.467Z,5.00
2023-02-05T03:40:45.480Z,4.83
2023-02-05T03:43:30.476Z,5.47
2023-02-05T03:46:08.875Z,4.70
2023-02-05T03:48:53.157Z,4.50
2023-02-05T03:51:36.766Z,4.90
2023-02-05T03:54:14.410Z,5.20
2023-02-05T03:56:54.652Z,5.00
2023-02-05T03:59:26.208Z,4.70
2023-02-05T04:01:57.617Z,5.20
2023-02-05T04:04:27.177Z,4.73
2023-02-05T04:06:58.513Z,4.27
2023-02-05T04:09:28.003Z,5.20
2023-02-05T04:11:58.616Z,5.17
2023-02-05T04:14:28.324Z,5.33
2023-02-05T04:16:59.257Z,5.50
2023-02-05T04:19:30.144Z,4.90
2023-02-05T04:22:02.175Z,5.40
2023-02-05T04:24:35.265Z,4.77
2023-02-05T04:27:04.858Z,5.23
2023-02-05T04:29:34.181Z,5.77
2023-02-05T04:32:05.081Z,5.00
2023-02-05T04:34:34.537Z,4.40
2023-02-05T04:37:04.002Z,5.43
2023-02-05T04:39:33.764Z,4.93
2023-02-05T04:42:03.169Z,4.80
2023-02-05T04:44:32.413Z,5.27
2023-02-05T04:47:01.633Z,5.57
2023-02-05T04:49:34.141Z,5.67
2023-02-05T04:52:03.578Z,4.70
2023-02-05T04:54:33.197Z,4.80
2023-02-05T04:57:02.389Z,5.00
2023-02-05T04:59:31.872Z,4.70
2023-02-05T05:02:01.583Z,4.87
2023-02-05T05:04:32.259Z,4.97
2023-02-05T05:07:01.568Z,5.10
2023-02-05T05:09:30.769Z,5.63
2023-02-05T05:12:00.101Z,5.37
2023-02-05T05:14:30.031Z,5.20
2023-02-05T05:16:59.347Z,4.73
2023-02-05T05:19:28.608Z,5.00
2023-02-05T05:21:59.325Z,4.43
2023-02-05T05:24:28.701Z,4.97
2023-02-05T05:26:57.945Z,4.93
2023-02-05T05:29:27.198Z,5.40
2023-02-05T05:31:56.474Z,5.13
2023-02-05T05:34:25.890Z,5.30
2023-02-05T05:36:55.251Z,5.13
2023-02-05T05:39:43.400Z,5.27
2023-02-05T05:42:30.879Z,5.17
2023-02-05T05:45:00.177Z,4.90
2023-02-05T05:47:29.546Z,5.00
2023-02-05T05:49:58.934Z,4.40
2023-02-05T05:52:28.764Z,4.83
2023-02-05T05:55:00.689Z,4.40
2023-02-05T05:57:30.543Z,4.80
2023-02-05T05:59:59.858Z,4.87
2023-02-05T06:02:29.185Z,5.00
2023-02-05T06:04:58.691Z,4.63
2023-02-05T06:07:27.973Z,5.47
2023-02-05T06:09:57.179Z,5.40
2023-02-05T06:12:27.789Z,4.77
2023-02-05T06:14:57.061Z,5.70
2023-02-05T06:17:26.280Z,5.30
2023-02-05T06:19:55.594Z,5.43
2023-02-05T06:22:24.848Z,5.93
2023-02-05T06:24:54.067Z,5.40
2023-02-05T06:27:23.399Z,5.23
2023-02-05T06:29:53.949Z,6.13
2023-02-05T06:32:25.233Z,5.53
2023-02-05T06:34:56.069Z,5.20
2023-02-05T06:37:34.166Z,5.40
2023-02-05T06:40:15.955Z,5.30
2023-02-05T06:42:45.252Z,5.80
2023-02-05T06:45:15.927Z,5.23
2023-02-05T06:47:45.246Z,4.63
2023-02-05T06:50:14.875Z,4.67
2023-02-05T06:52:44.102Z,5.33
2023-02-05T06:55:13.404Z,5.40
2023-02-05T06:57:42.749Z,5.00
2023-02-05T07:00:15.477Z,5.20
2023-02-05T07:02:44.899Z,5.13
2023-02-05T07:05:14.222Z,4.70
2023-02-05T07:07:43.493Z,5.37
2023-02-05T07:10:12.771Z,5.90
2023-02-05T07:12:42.084Z,5.73
2023-02-05T07:15:11.590Z,5.43
2023-02-05T07:17:42.296Z,5.00
2023-02-05T07:20:12.560Z,6.13
2023-02-05T07:22:42.180Z,5.20
2023-02-05T07:25:11.522Z,4.90
2023-02-05T07:27:40.869Z,5.23
2023-02-05T07:30:11.485Z,6.03
2023-02-05T07:32:42.302Z,5.53
2023-02-05T07:35:11.604Z,6.23
2023-02-05T07:37:40.999Z,5.80
2023-02-05T07:40:11.377Z,5.07
2023-02-05T07:42:40.787Z,5.40
2023-02-05T07:45:11.646Z,5.40
2023-02-05T07:47:42.313Z,6.00
2023-02-05T07:50:12.413Z,5.50
2023-02-05T07:52:41.867Z,5.50
2023-02-05T07:55:11.330Z,6.13
2023-02-05T07:57:40.852Z,5.63
2023-02-05T08:00:11.441Z,6.50
2023-02-05T08:02:45.484Z,5.53
2023-02-05T08:05:14.988Z,5.67
2023-02-05T08:07:45.598Z,5.40
2023-02-05T08:10:16.562Z,5.93
2023-02-05T08:12:45.976Z,5.20
2023-02-05T08:15:15.808Z,5.57
2023-02-05T08:17:46.765Z,5.53
2023-02-05T08:20:16.434Z,5.00
2023-02-05T08:22:46.046Z,5.30
2023-02-05T08:25:17.204Z,5.63
2023-02-05T08:27:48.309Z,5.20
2023-02-05T08:30:21.855Z,5.40
2023-02-05T08:32:53.114Z,6.40
2023-02-05T08:35:22.935Z,5.30
2023-02-05T08:37:52.617Z,6.10
2023-02-05T08:40:22.372Z,5.93
2023-02-05T08:42:57.447Z,5.63
2023-02-05T08:45:27.660Z,5.60
2023-02-05T08:47:59.998Z,5.60
2023-02-05T08:50:29.857Z,5.47
2023-02-05T08:53:01.990Z,5.70
2023-02-05T08:55:31.983Z,6.17
2023-02-05T08:58:04.629Z,5.77
2023-02-05T09:00:38.248Z,5.40
2023-02-05T09:03:09.224Z,5.70
2023-02-05T09:05:40.345Z,6.13
2023-02-05T09:08:10.073Z,5.97
2023-02-05T09:10:39.897Z,6.70
2023-02-05T09:13:10.106Z,6.30
2023-02-05T09:15:44.278Z,6.93
2023-02-05T09:18:15.884Z,6.10
2023-02-05T09:20:46.270Z,6.63
2023-02-05T09:23:18.567Z,5.50
2023-02-05T09:25:48.801Z,6.03
2023-02-05T09:28:18.587Z,5.97
2023-02-05T09:30:48.641Z,5.63
2023-02-05T09:33:22.354Z,5.73
2023-02-05T09:35:51.971Z,6.83
2023-02-05T09:38:24.560Z,5.63
2023-02-05T09:41:01.606Z,4.90
2023-02-05T09:43:48.880Z,4.87
2023-02-05T09:46:28.682Z,5.20
2023-02-05T09:49:04.990Z,4.20
2023-02-05T09:51:36.687Z,4.30
2023-02-05T09:54:22.062Z,4.50
2023-02-05T09:56:57.099Z,4.47
2023-02-05T09:59:29.211Z,4.53
2023-02-05T10:02:00.555Z,5.30
2023-02-05T10:04:32.128Z,3.10
2023-02-05T10:07:20.439Z,3.23
2023-02-05T10:10:18.827Z,3.30
2023-02-05T10:13:13.941Z,2.90
2023-02-05T10:15:59.183Z,3.33
2023-02-05T10:18:41.447Z,3.00
2023-02-05T10:21:25.038Z,2.90
2023-02-05T10:24:07.658Z,2.97
2023-02-05T10:26:43.850Z,3.50
2023-02-05T10:29:37.961Z,3.37
2023-02-05T10:32:23.225Z,3.73
2023-02-05T10:34:59.917Z,3.70
2023-02-05T10:37:42.579Z,3.60
2023-02-05T10:40:18.216Z,3.50
2023-02-05T10:42:52.112Z,3.47
2023-02-05T10:45:25.208Z,4.27
2023-02-05T10:48:14.944Z,3.60
2023-02-05T10:50:53.870Z,4.00
2023-02-05T10:53:26.701Z,3.70
2023-02-05T10:55:56.733Z,4.13
2023-02-05T10:58:42.218Z,4.83
2023-02-05T11:01:16.511Z,4.60
2023-02-05T11:03:56.218Z,5.03
2023-02-05T11:06:28.994Z,5.43
2023-02-05T11:09:00.111Z,4.23
2023-02-05T11:11:31.596Z,4.60
2023-02-05T11:14:02.978Z,4.80
2023-02-05T11:16:40.934Z,4.57
2023-02-05T11:19:21.430Z,5.60
2023-02-05T11:21:53.748Z,4.03
2023-02-05T11:24:31.384Z,4.67
2023-02-05T11:27:37.006Z,4.13
2023-02-05T11:30:50.117Z,4.93
2023-02-05T11:33:28.522Z,4.50
2023-02-05T11:36:03.806Z,4.60
2023-02-05T11:38:45.015Z,5.60
2023-02-05T11:41:29.218Z,5.77
2023-02-05T11:44:01.865Z,5.10
2023-02-05T11:46:43.996Z,5.77
2023-02-05T11:49:22.714Z,5.33
2023-02-05T11:51:55.530Z,5.23
2023-02-05T11:54:30.336Z,5.07
2023-02-05T11:57:25.117Z,5.00
2023-02-05T11:59:58.577Z,4.77
2023-02-05T12:02:34.914Z,5.47
2023-02-05T12:05:20.036Z,5.77
2023-02-05T12:07:55.084Z,5.73
2023-02-05T12:10:35.552Z,5.27
2023-02-05T12:13:13.206Z,4.97
2023-02-05T12:15:54.153Z,4.50
2023-02-05T12:18:33.247Z,4.10
2023-02-05T12:21:17.265Z,5.00
2023-02-05T12:24:26.291Z,5.10
2023-02-05T12:27:05.702Z,4.43
2023-02-05T12:29:56.976Z,4.60
2023-02-05T12:32:36.701Z,5.10
2023-02-05T12:35:20.994Z,4.37
2023-02-05T12:37:59.788Z,5.10
2023-02-05T12:40:44.405Z,4.87
2023-02-05T12:43:30.235Z,5.13
2023-02-05T12:46:12.446Z,5.27
2023-02-05T12:49:01.258Z,4.40
2023-02-05T12:51:44.599Z,4.03
2023-02-05T12:54:36.751Z,4.13
2023-02-05T12:57:11.443Z,5.67
2023-02-05T12:59:44.812Z,4.10
2023-02-05T13:02:31.927Z,4.97
2023-02-05T13:05:14.065Z,4.73
2023-02-05T13:07:47.335Z,4.33
2023-02-05T13:10:20.848Z,4.00
2023-02-05T13:12:56.183Z,3.67
2023-02-05T13:15:31.407Z,4.63
2023-02-05T13:18:07.927Z,4.63
2023-02-05T13:21:00.414Z,4.00
2023-02-05T13:23:48.950Z,4.40
2023-02-05T13:26:38.213Z,4.37
2023-02-05T13:29:13.289Z,3.93
2023-02-05T13:31:48.807Z,4.40
2023-02-05T13:34:22.160Z,4.13
2023-02-05T13:37:30.213Z,4.20
2023-02-05T13:40:32.156Z,3.80
2023-02-05T13:43:28.475Z,4.43
2023-02-05T13:46:27.702Z,3.97
2023-02-05T13:49:19.747Z,4.10
2023-02-05T13:52:13.567Z,4.83
2023-02-05T13:55:14.205Z,4.60
2023-02-05T13:58:24.671Z,3.70
2023-02-05T14:01:03.439Z,4.77
2023-02-05T14:03:37.286Z,3.73
2023-02-05T14:06:25.082Z,4.33
2023-02-05T14:09:03.318Z,3.77
2023-02-05T14:11:55.614Z,4.33
2023-02-05T14:14:29.935Z,4.00
2023-02-05T14:17:02.733Z,4.07
2023-02-05T14:19:58.626Z,4.00
2023-02-05T14:22:43.711Z,4.63
2023-02-05T14:26:02.767Z,3.93
2023-02-05T14:28:53.280Z,4.43
2023-02-05T14:31:59.442Z,4.63
2023-02-05T14:34:50.226Z,4.93
2023-02-05T14:37:40.590Z,4.80
2023-02-05T14:40:30.808Z,4.20
2023-02-05T14:43:13.709Z,4.13
2023-02-05T14:45:51.247Z,4.80
2023-02-05T14:48:26.134Z,4.23
2023-02-05T14:51:10.129Z,4.80
2023-02-05T14:53:42.922Z,4.80
2023-02-05T14:56:32.344Z,4.40
2023-02-05T14:59:07.850Z,6.30
2023-02-05T15:01:51.154Z,5.80
2023-02-05T15:04:44.182Z,4.73
2023-02-05T15:07:19.664Z,4.23
2023-02-05T15:09:58.022Z,4.40
2023-02-05T15:13:04.052Z,4.23
2023-02-05T15:15:36.405Z,4.67
2023-02-05T15:18:19.074Z,4.33
2023-02-05T15:20:51.395Z,4.40
2023-02-05T15:23:31.698Z,4.03
2023-02-05T15:26:05.990Z,4.10
2023-02-05T15:28:41.459Z,4.73
2023-02-05T15:31:28.248Z,3.87
2023-02-05T15:34:21.636Z,4.60
2023-02-05T15:36:59.362Z,5.00
2023-02-05T15:39:33.742Z,4.83
2023-02-05T15:42:09.495Z,4.60
2023-02-05T15:44:40.599Z,4.77
2023-02-05T15:47:19.437Z,4.90
2023-02-05T15:49:54.176Z,4.57
2023-02-05T15:52:27.161Z,4.20
2023-02-05T15:55:01.172Z,4.50
2023-02-05T15:57:35.712Z,4.03
2023-02-05T16:00:11.977Z,4.33
2023-02-05T16:02:57.614Z,4.30
2023-02-05T16:05:31.386Z,4.63
2023-02-05T16:08:03.763Z,4.43
2023-02-05T16:10:36.032Z,4.00
2023-02-05T16:13:09.493Z,3.93
2023-02-05T16:15:45.218Z,3.87
2023-02-05T16:18:23.740Z,4.63
2023-02-05T16:21:00.411Z,4.17
2023-02-05T16:23:35.308Z,4.53
2023-02-05T16:26:15.076Z,4.17
2023-02-05T16:28:48.649Z,4.57
2023-02-05T16:31:22.397Z,4.27
2023-02-05T16:33:57.646Z,4.70
2023-02-05T16:36:34.705Z,4.57
2023-02-05T16:39:08.349Z,4.67
2023-02-05T16:41:42.493Z,4.53
2023-02-05T16:44:31.009Z,4.47
2023-02-05T16:47:18.132Z,4.20
2023-02-05T16:49:50.768Z,4.93
2023-02-05T16:52:37.533Z,4.67
2023-02-05T16:55:32.079Z,3.77
2023-02-05T16:58:08.181Z,4.43
2023-02-05T17:00:39.044Z,4.40
2023-02-05T17:03:18.679Z,4.70
2023-02-05T17:05:58.068Z,4.60
2023-02-05T17:08:34.761Z,4.77
2023-02-05T17:11:08.265Z,3.97
2023-02-05T17:13:43.493Z,10.13
2023-02-05T17:16:31.397Z,4.57
2023-02-05T17:19:03.874Z,3.93
2023-02-05T17:21:35.861Z,4.30
2023-02-05T17:24:10.369Z,4.30
2023-02-05T17:26:44.927Z,4.20
2023-02-05T17:29:19.129Z,4.23
2023-02-05T17:31:50.417Z,4.23
2023-02-05T17:34:23.076Z,5.20
2023-02-05T17:36:56.622Z,4.33
2023-02-05T17:39:29.495Z,4.87
2023-02-05T17:42:09.408Z,4.80
2023-02-05T17:44:42.361Z,3.80
2023-02-05T17:47:16.440Z,4.30
2023-02-05T17:49:47.141Z,4.83
2023-02-05T17:52:20.505Z,4.87
2023-02-05T17:54:52.966Z,4.73
2023-02-05T17:57:25.791Z,4.30
2023-02-05T17:59:57.821Z,5.30
2023-02-05T18:02:28.789Z,5.00
2023-02-05T18:05:00.178Z,16.17
2023-02-05T18:07:35.927Z,19.80
2023-02-05T18:10:12.656Z,6.20
2023-02-05T18:12:43.748Z,5.87
2023-02-05T18:15:14.955Z,6.40
2023-02-05T18:17:45.441Z,6.47
2023-02-05T18:20:17.616Z,7.87
2023-02-05T18:22:49.122Z,8.17
2023-02-05T18:25:27.465Z,7.73
2023-02-05T18:28:04.913Z,7.77
2023-02-05T18:30:35.542Z,8.07
2023-02-05T18:33:07.766Z,7.63
2023-02-05T18:35:39.744Z,8.00
2023-02-05T18:38:12.332Z,7.37
2023-02-05T18:40:45.084Z,9.67
2023-02-05T18:43:17.178Z,13.60
2023-02-05T18:45:48.215Z,12.10
2023-02-05T18:48:23.189Z,8.27
2023-02-05T18:50:55.000Z,8.13
2023-02-05T18:53:28.650Z,8.50
2023-02-05T18:56:10.205Z,8.20
2023-02-05T18:58:41.661Z,7.63
2023-02-05T19:01:14.740Z,8.23
2023-02-05T19:03:47.188Z,8.27
2023-02-05T19:06:20.123Z,7.93
2023-02-05T19:08:52.279Z,9.30
2023-02-05T19:11:27.765Z,9.40
2023-02-05T19:14:00.209Z,8.57
2023-02-05T19:16:33.345Z,9.20
2023-02-05T19:19:08.772Z,8.70
2023-02-05T19:21:39.453Z,9.73
2023-02-05T19:24:12.043Z,9.07
2023-02-05T19:26:46.002Z,9.47
2023-02-05T19:29:22.687Z,9.07
2023-02-05T19:31:55.563Z,10.43
2023-02-05T19:34:29.711Z,9.97
2023-02-05T19:37:01.142Z,11.00
2023-02-05T19:39:32.519Z,12.17
2023-02-05T19:42:05.461Z,10.07
2023-02-05T19:44:39.312Z,12.97
2023-02-05T19:47:11.032Z,12.13
2023-02-05T19:49:44.412Z,12.63
2023-02-05T19:52:15.501Z,11.33
2023-02-05T19:54:47.086Z,12.40
2023-02-05T19:57:19.193Z,13.20
2023-02-05T19:59:50.738Z,13.00
2023-02-05T20:02:22.638Z,13.83
2023-02-05T20:04:55.888Z,13.10
2023-02-05T20:07:26.787Z,13.83
2023-02-05T20:09:58.328Z,13.03
2023-02-05T20:12:31.539Z,13.57
2023-02-05T20:15:03.215Z,14.53
2023-02-05T20:17:39.014Z,13.50
2023-02-05T20:20:24.988Z,13.17
2023-02-05T20:23:03.058Z,13.37
2023-02-05T20:25:34.047Z,14.10
2023-02-05T20:28:09.713Z,13.97
2023-02-05T20:31:00.241Z,14.70
2023-02-05T20:33:31.229Z,15.03
2023-02-05T20:36:08.476Z,15.17
2023-02-05T20:38:39.864Z,14.33
2023-02-05T20:41:14.612Z,14.13
2023-02-05T20:43:47.802Z,14.57
2023-02-05T20:46:19.856Z,14.87
2023-02-05T20:48:50.660Z,14.60
2023-02-05T20:51:34.812Z,15.33
2023-02-05T20:54:08.354Z,15.70
2023-02-05T20:56:39.955Z,15.43
2023-02-05T20:59:13.491Z,16.27
2023-02-05T21:01:44.216Z,14.70
2023-02-05T21:04:16.760Z,15.80
2023-02-05T21:06:47.436Z,15.23
2023-02-05T21:09:22.310Z,16.43
2023-02-05T21:11:56.512Z,16.50
2023-02-05T21:14:28.565Z,15.43
2023-02-05T21:16:59.909Z,16.30
2023-02-05T21:19:30.539Z,15.77
2023-02-05T21:22:01.889Z,16.10
2023-02-05T21:24:32.409Z,14.90
2023-02-05T21:27:02.919Z,17.13
2023-02-05T21:29:33.857Z,17.87
2023-02-05T21:32:03.806Z,15.70
2023-02-05T21:34:34.183Z,17.20
2023-02-05T21:37:04.899Z,18.57
2023-02-05T21:39:36.365Z,16.83
2023-02-05T21:42:06.501Z,16.50
2023-02-05T21:44:37.822Z,17.27
2023-02-05T21:47:07.654Z,17.27
2023-02-05T21:49:37.128Z,16.60
2023-02-05T21:52:06.909Z,15.57
2023-02-05T21:54:36.371Z,16.17
2023-02-05T21:57:06.011Z,16.87
2023-02-05T21:59:36.795Z,17.70
2023-02-05T22:02:06.140Z,17.80
2023-02-05T22:04:35.370Z,16.50
2023-02-05T22:07:04.653Z,17.83
2023-02-05T22:09:34.355Z,16.63
2023-02-05T22:12:04.141Z,16.80
2023-02-05T22:14:33.919Z,17.20
2023-02-05T22:17:04.974Z,17.33
2023-02-05T22:19:34.214Z,17.03
2023-02-05T22:22:03.546Z,18.03
2023-02-05T22:24:32.909Z,18.33
2023-02-05T22:27:02.437Z,18.80
2023-02-05T22:29:31.647Z,18.97
2023-02-05T22:32:00.852Z,19.00
2023-02-05T22:34:31.600Z,19.73
2023-02-05T22:37:01.135Z,20.63
2023-02-05T22:39:30.445Z,19.80
2023-02-05T22:42:00.117Z,19.10
2023-02-05T22:44:29.426Z,20.23
2023-02-05T22:46:59.103Z,20.87
2023-02-05T22:49:28.565Z,20.70
2023-02-05T22:51:59.344Z,22.50
2023-02-05T22:54:28.679Z,21.50
2023-02-05T22:56:57.958Z,22.77
2023-02-05T22:59:27.708Z,23.50
2023-02-05T23:01:57.076Z,23.07
2023-02-05T23:04:26.326Z,24.10
2023-02-05T23:06:55.554Z,23.40
2023-02-05T23:09:26.614Z,24.87
2023-02-05T23:11:56.931Z,22.87
2023-02-05T23:14:26.635Z,24.53
2023-02-05T23:16:56.885Z,23.27
2023-02-05T23:19:26.378Z,24.43
2023-02-05T23:21:55.634Z,24.90
2023-02-05T23:24:26.509Z,25.00
2023-02-05T23:26:55.875Z,23.47
2023-02-05T23:29:25.314Z,24.53
2023-02-05T23:31:54.614Z,24.50
2023-02-05T23:34:24.028Z,24.33
2023-02-05T23:36:53.275Z,25.27
2023-02-05T23:39:22.569Z,25.43
2023-02-05T23:41:53.170Z,24.83
2023-02-05T23:44:22.628Z,26.20
2023-02-05T23:46:52.792Z,24.03
2023-02-05T23:49:23.437Z,26.63
2023-02-05T23:51:55.249Z,26.10
2023-02-05T23:54:25.502Z,24.40
2023-02-05T23:56:57.002Z,26.73
2023-02-05T23:59:26.298Z,27.93
